Danbury, New Hampshire
Current Conditions -  °F | °C
As of 5:35 PM on Monday 22 Dec 2014 (Local Time) from K1P1 Reporting Station
Overcast Overcast  
Wind Chill: 33°   Ceiling: 2000
Heat Index: 33°   Visibility: 10mi
Dew Point: 31°   Wind: 0mph
Humidity: 91%   Direction: NA
Pressure: 30.34"   Gusts: NA
Location:  43.53°N, 71.86°W
Report Text: K1P1 222235Z AUTO 00000KT 10SM OVC020 01/M01 A3034 RMK AO2 T00061007
Loading
Personal Weather Stations






























Interactive Weather Map New forecast layout! Learn more

10-Day Weather Forecast

Advertisements
Track Severe Weather on mobile